Time;durP1;ratioP1;P1;durP2;ratioP2;P2;SDS_P1;SDS_P2;PMS_P1;PMS_P2;Temp;Humidity;BMP_temperature;BMP_pressure;BME280_temperature;BME280_humidity;BME280_pressure;Samples;Min_cycle;Max_cycle;Signal;HPM_P1;HPM_P2
2024/01/31 00:01:44;;;;;;;1.35;1.30;;;16.80;69.80;;;;;;5018710;28;20041;-81
2024/01/31 00:04:09;;;;;;;1.05;1.05;;;16.80;69.80;;;;;;4999896;28;20496;-80
2024/01/31 00:06:35;;;;;;;1.15;1.13;;;16.80;69.80;;;;;;5014756;28;20485;-80
2024/01/31 00:09:00;;;;;;;1.15;1.15;;;16.80;69.90;;;;;;5000186;28;20133;-80
2024/01/31 00:11:30;;;;;;;2.15;1.20;;;16.80;69.70;;;;;;5019841;28;20585;-80
2024/01/31 00:13:58;;;;;;;1.38;1.27;;;16.80;70.50;;;;;;5001109;28;20044;-80
2024/01/31 00:16:24;;;;;;;1.10;1.10;;;16.80;69.60;;;;;;5021161;28;20045;-80
2024/01/31 00:18:52;;;;;;;1.30;1.30;;;16.80;69.60;;;;;;4986915;28;20116;-80
2024/01/31 00:21:18;;;;;;;1.42;1.33;;;16.80;69.60;;;;;;5019404;28;20042;-80
2024/01/31 00:23:43;;;;;;;1.30;1.23;;;16.80;69.60;;;;;;5003647;28;20111;-80
2024/01/31 00:26:09;;;;;;;1.30;1.20;;;16.80;69.60;;;;;;5016806;28;20049;-79
2024/01/31 00:28:34;;;;;;;1.30;1.20;;;16.70;69.50;;;;;;5020133;28;20584;-80
2024/01/31 00:31:00;;;;;;;1.40;1.30;;;16.80;69.60;;;;;;5019682;28;20047;-80
2024/01/31 00:33:26;;;;;;;1.25;1.20;;;16.80;69.60;;;;;;5018089;28;20406;-80
2024/01/31 00:35:53;;;;;;;1.10;1.10;;;16.80;69.70;;;;;;5019202;28;20049;-79
2024/01/31 00:38:18;;;;;;;1.23;1.13;;;16.80;69.60;;;;;;5032412;28;20042;-78
2024/01/31 00:40:44;;;;;;;1.33;1.10;;;16.80;69.70;;;;;;5021984;28;20061;-80
2024/01/31 00:43:10;;;;;;;1.08;1.08;;;16.80;69.70;;;;;;5022747;28;20124;-79
2024/01/31 00:45:35;;;;;;;1.40;1.30;;;16.80;69.60;;;;;;4999920;28;20199;-79
2024/01/31 00:48:01;;;;;;;1.35;1.25;;;16.70;69.60;;;;;;5021844;28;20037;-79
2024/01/31 00:50:27;;;;;;;1.38;1.27;;;16.70;69.50;;;;;;5025267;28;20041;-78
2024/01/31 00:52:53;;;;;;;1.08;1.08;;;16.70;69.70;;;;;;5009246;28;20518;-80
2024/01/31 00:55:18;;;;;;;1.50;1.40;;;16.80;69.40;;;;;;5008483;28;20167;-79
2024/01/31 00:57:44;;;;;;;1.25;1.23;;;16.80;69.50;;;;;;5007080;28;20037;-79
2024/01/31 01:00:11;;;;;;;1.20;1.10;;;16.80;69.50;;;;;;5001529;28;20048;-79
2024/01/31 01:02:40;;;;;;;1.10;1.10;;;16.70;69.60;;;;;;5023888;28;20046;-79
2024/01/31 01:05:09;;;;;;;1.00;1.00;;;16.80;69.50;;;;;;5008188;28;20046;-80
2024/01/31 01:07:38;;;;;;;1.13;1.08;;;16.80;69.50;;;;;;5023483;28;20095;-79
2024/01/31 01:10:13;;;;;;;1.10;1.10;;;16.70;69.40;;;;;;5010838;28;20049;-78
2024/01/31 01:12:39;;;;;;;1.23;1.13;;;16.70;69.40;;;;;;5011040;28;20046;-77
2024/01/31 01:15:05;;;;;;;1.30;1.20;;;16.70;69.50;;;;;;5001816;28;20048;-79
2024/01/31 01:17:31;;;;;;;1.20;1.20;;;16.70;69.40;;;;;;5025322;28;20069;-79
2024/01/31 01:19:57;;;;;;;1.10;1.00;;;16.70;69.30;;;;;;5032014;28;20068;-79
2024/01/31 01:22:22;;;;;;;1.10;1.10;;;16.70;69.40;;;;;;5020195;28;20048;-79
2024/01/31 01:24:48;;;;;;;0.70;0.70;;;16.70;69.50;;;;;;5023061;28;20049;-79
2024/01/31 01:27:13;;;;;;;1.52;1.13;;;16.70;69.50;;;;;;4999606;28;20156;-78
2024/01/31 01:29:39;;;;;;;1.10;1.10;;;16.70;69.20;;;;;;5003258;28;20041;-78
2024/01/31 01:32:05;;;;;;;1.30;1.20;;;16.70;69.10;;;;;;5005357;28;20050;-79
2024/01/31 01:34:30;;;;;;;1.30;1.20;;;16.70;69.40;;;;;;5025843;28;20094;-78
2024/01/31 01:36:56;;;;;;;0.98;0.98;;;16.70;69.10;;;;;;5010276;28;20041;-79
2024/01/31 01:39:21;;;;;;;0.90;0.90;;;16.70;69.10;;;;;;5007842;28;20069;-78
2024/01/31 01:41:50;;;;;;;1.08;0.80;;;16.70;69.10;;;;;;5025390;28;20069;-78
2024/01/31 01:44:16;;;;;;;0.95;0.95;;;16.70;69.20;;;;;;4989484;28;20092;-78
2024/01/31 01:46:42;;;;;;;1.23;1.13;;;16.70;69.00;;;;;;5020130;28;20048;-79
2024/01/31 01:49:08;;;;;;;1.00;1.00;;;16.60;68.80;;;;;;5028799;28;20117;-78
2024/01/31 01:51:33;;;;;;;0.70;0.70;;;16.60;68.80;;;;;;5010231;28;20507;-78
2024/01/31 01:53:59;;;;;;;0.90;0.90;;;16.60;69.00;;;;;;5007502;28;20506;-79
2024/01/31 01:56:24;;;;;;;1.02;1.00;;;16.60;68.90;;;;;;4979701;28;20096;-79
2024/01/31 01:58:51;;;;;;;1.27;1.27;;;16.60;69.10;;;;;;5005440;28;20046;-78
2024/01/31 02:01:16;;;;;;;1.00;1.00;;;16.60;68.90;;;;;;4990492;28;20215;-77
2024/01/31 02:03:43;;;;;;;1.42;1.20;;;16.60;68.90;;;;;;4988268;28;20078;-78
2024/01/31 02:06:08;;;;;;;0.88;0.88;;;16.60;68.80;;;;;;5022639;28;20044;-78
2024/01/31 02:08:34;;;;;;;1.10;1.10;;;16.60;68.80;;;;;;5003392;28;20029;-78
2024/01/31 02:11:00;;;;;;;1.33;1.15;;;16.60;68.70;;;;;;5023450;28;20037;-78
2024/01/31 02:13:25;;;;;;;1.00;1.00;;;16.60;68.80;;;;;;5025314;28;20022;-78
2024/01/31 02:15:51;;;;;;;1.00;1.00;;;16.60;68.80;;;;;;5021778;28;20045;-78
2024/01/31 02:18:17;;;;;;;0.82;0.82;;;16.60;68.80;;;;;;5023273;28;20041;-78
2024/01/31 02:20:43;;;;;;;0.90;0.90;;;16.60;68.80;;;;;;5020504;28;20091;-78
2024/01/31 02:23:08;;;;;;;0.82;0.82;;;16.60;68.70;;;;;;5006214;28;20054;-78
2024/01/31 02:25:34;;;;;;;1.13;1.02;;;16.60;68.80;;;;;;5007266;28;20038;-79
2024/01/31 02:27:59;;;;;;;1.10;1.10;;;16.60;68.70;;;;;;5022710;28;20515;-79
2024/01/31 02:30:25;;;;;;;0.88;0.88;;;16.60;68.60;;;;;;5017937;28;20664;-78
2024/01/31 02:32:50;;;;;;;0.90;0.90;;;16.60;68.60;;;;;;5023147;28;20117;-78
2024/01/31 02:35:16;;;;;;;0.70;0.70;;;16.60;68.60;;;;;;5006828;28;20057;-79
2024/01/31 02:37:43;;;;;;;1.95;1.10;;;16.60;68.60;;;;;;5013685;28;20041;-78
2024/01/31 02:40:09;;;;;;;0.90;0.90;;;16.50;68.60;;;;;;5036884;28;20063;-79
2024/01/31 02:42:34;;;;;;;1.00;0.93;;;16.50;68.60;;;;;;4993284;28;20427;-79
2024/01/31 02:45:00;;;;;;;1.73;0.95;;;16.60;68.70;;;;;;4984290;28;20074;-80
2024/01/31 02:47:25;;;;;;;0.93;0.93;;;16.50;68.50;;;;;;5003088;28;20045;-79
2024/01/31 02:49:51;;;;;;;0.80;0.80;;;16.50;68.50;;;;;;4990165;28;20041;-79
2024/01/31 02:52:16;;;;;;;1.10;1.00;;;16.50;68.60;;;;;;5039050;28;20037;-79
2024/01/31 02:54:42;;;;;;;0.90;0.90;;;16.50;68.60;;;;;;5004346;28;20050;-78
2024/01/31 02:57:08;;;;;;;1.02;0.93;;;16.50;68.60;;;;;;5007168;28;20053;-79
2024/01/31 02:59:33;;;;;;;0.98;0.98;;;16.50;68.50;;;;;;5022109;28;20045;-79
2024/01/31 03:01:59;;;;;;;0.85;0.85;;;16.50;68.50;;;;;;4988557;28;20049;-79
2024/01/31 03:04:24;;;;;;;0.80;0.80;;;16.50;68.40;;;;;;5000187;28;20111;-78
2024/01/31 03:06:50;;;;;;;0.90;0.90;;;16.50;68.40;;;;;;5023309;28;20061;-78
2024/01/31 03:09:15;;;;;;;2.10;0.85;;;16.50;68.50;;;;;;5005167;28;20036;-78
2024/01/31 03:11:41;;;;;;;0.90;0.90;;;16.50;68.60;;;;;;4992084;28;20167;-79
2024/01/31 03:14:06;;;;;;;0.70;0.70;;;16.50;68.40;;;;;;5023741;28;20126;-79
2024/01/31 03:16:32;;;;;;;0.70;0.70;;;16.50;68.40;;;;;;5024697;28;20049;-78
2024/01/31 03:18:58;;;;;;;0.93;0.80;;;16.50;68.40;;;;;;5025418;28;20042;-78
2024/01/31 03:21:24;;;;;;;1.02;1.02;;;16.40;68.50;;;;;;5003872;28;20037;-78
2024/01/31 03:23:50;;;;;;;0.80;0.70;;;16.50;68.40;;;;;;5021605;28;20455;-79
2024/01/31 03:26:16;;;;;;;0.90;0.90;;;16.50;68.40;;;;;;5006232;28;20422;-79
2024/01/31 03:28:41;;;;;;;0.90;0.90;;;16.50;68.50;;;;;;5009197;28;20056;-78
2024/01/31 03:31:07;;;;;;;1.20;1.20;;;16.50;68.60;;;;;;5038980;28;20030;-79
2024/01/31 03:33:32;;;;;;;0.70;0.70;;;16.50;68.50;;;;;;4996132;28;20041;-79
2024/01/31 03:35:58;;;;;;;0.80;0.80;;;16.50;68.40;;;;;;4971919;28;20415;-78
2024/01/31 03:38:24;;;;;;;0.90;0.90;;;16.50;68.40;;;;;;5004063;28;20056;-78
2024/01/31 03:40:50;;;;;;;0.95;0.95;;;16.40;68.30;;;;;;5024364;28;21275;-78
2024/01/31 03:43:15;;;;;;;0.82;0.80;;;16.50;68.40;;;;;;5005824;28;20041;-79
2024/01/31 03:45:41;;;;;;;1.45;0.80;;;16.40;69.10;;;;;;5024110;28;20100;-79
2024/01/31 03:48:07;;;;;;;0.65;0.60;;;16.50;68.20;;;;;;5021488;28;20059;-78
2024/01/31 03:50:32;;;;;;;2.42;0.80;;;16.50;68.30;;;;;;4994326;28;20042;-79
2024/01/31 03:52:58;;;;;;;0.80;0.80;;;16.50;68.20;;;;;;5002670;28;20535;-78
2024/01/31 03:55:24;;;;;;;1.45;1.00;;;16.50;68.30;;;;;;5004938;28;20050;-79
2024/01/31 03:57:49;;;;;;;0.68;0.68;;;16.50;68.40;;;;;;4976693;28;20034;-78
2024/01/31 04:00:15;;;;;;;1.05;1.00;;;16.40;68.40;;;;;;5022050;28;20091;-78
2024/01/31 04:02:41;;;;;;;0.70;0.70;;;16.40;68.30;;;;;;5019925;28;20044;-79
2024/01/31 04:05:10;;;;;;;0.98;0.98;;;16.50;69.00;;;;;;5021021;28;20038;-79
2024/01/31 04:07:35;;;;;;;0.70;0.70;;;16.40;68.30;;;;;;5001849;28;20075;-78
2024/01/31 04:10:01;;;;;;;0.73;0.73;;;16.40;68.40;;;;;;5004897;28;20121;-79
2024/01/31 04:12:26;;;;;;;0.82;0.70;;;16.40;68.30;;;;;;5004386;28;20048;-79
2024/01/31 04:14:52;;;;;;;0.93;0.93;;;16.40;68.30;;;;;;5028477;28;20054;-78
2024/01/31 04:17:18;;;;;;;0.50;0.50;;;16.40;68.30;;;;;;5027332;28;20042;-78
2024/01/31 04:19:48;;;;;;;1.00;0.90;;;16.40;68.20;;;;;;4998307;28;20048;-79
2024/01/31 04:22:15;;;;;;;1.02;0.93;;;16.40;68.40;;;;;;5007009;28;20058;-78
2024/01/31 04:24:41;;;;;;;0.80;0.80;;;16.40;68.40;;;;;;5057302;28;20056;-78
2024/01/31 04:27:07;;;;;;;0.80;0.80;;;16.40;68.20;;;;;;5002836;28;20137;-79
2024/01/31 04:29:32;;;;;;;0.80;0.80;;;16.40;69.00;;;;;;5040873;28;20152;-78
2024/01/31 04:31:59;;;;;;;0.75;0.75;;;16.40;68.40;;;;;;5030314;28;20072;-78
2024/01/31 04:34:25;;;;;;;0.95;0.60;;;16.40;68.30;;;;;;5028174;28;20053;-78
2024/01/31 04:36:50;;;;;;;1.02;1.02;;;16.40;68.20;;;;;;4992485;28;20091;-78
2024/01/31 04:39:16;;;;;;;0.98;0.60;;;16.40;68.40;;;;;;5029626;28;20044;-79
2024/01/31 04:41:43;;;;;;;0.80;0.80;;;16.40;68.20;;;;;;5012911;28;20034;-78
2024/01/31 04:44:08;;;;;;;0.70;0.70;;;16.40;68.20;;;;;;5027555;28;20571;-79
2024/01/31 04:46:36;;;;;;;0.63;0.63;;;16.40;68.20;;;;;;5013107;28;20152;-78
2024/01/31 04:49:01;;;;;;;0.90;0.90;;;16.40;68.20;;;;;;5029445;28;20069;-78
2024/01/31 04:51:27;;;;;;;0.80;0.80;;;16.40;68.30;;;;;;5027190;28;20215;-78
2024/01/31 04:53:53;;;;;;;0.77;0.73;;;16.40;68.20;;;;;;4998793;28;20045;-79
2024/01/31 04:56:18;;;;;;;0.60;0.60;;;16.40;68.20;;;;;;5013047;28;20042;-79
2024/01/31 04:58:44;;;;;;;0.75;0.75;;;16.30;68.20;;;;;;5012241;28;20052;-79
2024/01/31 05:01:09;;;;;;;0.70;0.70;;;16.40;68.10;;;;;;5044377;28;20495;-79
2024/01/31 05:03:35;;;;;;;0.70;0.70;;;16.30;68.10;;;;;;5013515;28;20412;-79
2024/01/31 05:06:00;;;;;;;1.17;1.10;;;16.30;68.10;;;;;;5028565;28;20033;-79
2024/01/31 05:08:29;;;;;;;0.68;0.68;;;16.30;68.20;;;;;;5028659;28;20041;-79
2024/01/31 05:10:55;;;;;;;0.60;0.60;;;16.30;68.10;;;;;;5028429;28;20045;-78
2024/01/31 05:13:20;;;;;;;0.70;0.70;;;16.30;68.00;;;;;;5043509;28;20033;-78
2024/01/31 05:15:46;;;;;;;0.90;0.80;;;16.30;68.10;;;;;;5017544;28;20035;-78
2024/01/31 05:18:12;;;;;;;0.57;0.57;;;16.30;68.20;;;;;;5020949;28;20033;-79
2024/01/31 05:20:37;;;;;;;1.00;0.90;;;16.30;68.30;;;;;;5011739;28;20045;-78
2024/01/31 05:23:04;;;;;;;0.70;0.70;;;16.30;68.20;;;;;;5026017;28;20502;-79
2024/01/31 05:25:30;;;;;;;1.00;0.90;;;16.30;68.30;;;;;;5010738;28;20049;-78
2024/01/31 05:27:55;;;;;;;0.77;0.77;;;16.30;68.30;;;;;;5042886;28;20376;-78
2024/01/31 05:30:21;;;;;;;0.70;0.70;;;16.30;68.30;;;;;;5023459;28;20037;-79
2024/01/31 05:32:47;;;;;;;0.70;0.70;;;16.30;68.20;;;;;;4992998;28;20045;-78
2024/01/31 05:35:13;;;;;;;0.82;0.82;;;16.30;68.20;;;;;;5021251;28;20046;-78
2024/01/31 05:37:38;;;;;;;0.90;0.90;;;16.30;68.20;;;;;;5027030;28;20172;-78
2024/01/31 05:40:05;;;;;;;0.80;0.80;;;16.30;68.20;;;;;;5025713;28;20081;-79
2024/01/31 05:42:30;;;;;;;0.85;0.85;;;16.30;68.10;;;;;;5008653;28;20083;-78
2024/01/31 05:44:57;;;;;;;0.60;0.60;;;16.30;68.10;;;;;;5002660;28;20033;-78
2024/01/31 05:47:23;;;;;;;1.20;1.10;;;16.20;68.20;;;;;;5007380;28;20049;-79
2024/01/31 05:49:48;;;;;;;0.65;0.65;;;16.30;68.10;;;;;;5024029;28;20072;-78
2024/01/31 05:52:14;;;;;;;1.25;0.90;;;16.30;68.10;;;;;;5009276;28;20045;-77
2024/01/31 05:54:39;;;;;;;0.60;0.60;;;16.30;68.10;;;;;;5031693;28;20045;-79
2024/01/31 05:57:05;;;;;;;1.10;0.70;;;16.30;68.20;;;;;;4993755;28;20041;-79
2024/01/31 05:59:31;;;;;;;0.93;0.90;;;16.20;68.20;;;;;;5008798;28;20040;-79
2024/01/31 06:01:57;;;;;;;0.80;0.80;;;16.30;68.10;;;;;;5008436;28;20042;-78
2024/01/31 06:04:22;;;;;;;0.50;0.50;;;16.30;68.20;;;;;;5026524;28;20108;-79
2024/01/31 06:06:48;;;;;;;0.70;0.70;;;16.20;68.10;;;;;;5007720;28;20515;-79
2024/01/31 06:09:14;;;;;;;1.10;0.93;;;16.20;68.10;;;;;;5023902;28;20060;-79
2024/01/31 06:11:39;;;;;;;0.70;0.70;;;16.20;68.00;;;;;;4996302;28;20041;-78
2024/01/31 06:14:06;;;;;;;0.80;0.80;;;16.20;68.10;;;;;;5015703;28;20038;-78
2024/01/31 06:16:32;;;;;;;0.70;0.70;;;16.20;68.10;;;;;;5023543;28;20129;-79
2024/01/31 06:18:59;;;;;;;0.90;0.90;;;16.20;68.10;;;;;;5026097;28;20037;-78
2024/01/31 06:21:25;;;;;;;0.68;0.68;;;16.20;68.10;;;;;;5021603;28;20045;-78
2024/01/31 06:23:51;;;;;;;0.80;0.80;;;16.20;68.10;;;;;;5000277;28;20036;-78
2024/01/31 06:26:16;;;;;;;1.00;0.90;;;16.20;68.00;;;;;;4989469;28;20041;-80
2024/01/31 06:28:42;;;;;;;0.70;0.70;;;16.20;68.10;;;;;;5016174;28;20073;-79
2024/01/31 06:31:16;;;;;;;0.65;0.65;;;16.20;68.00;;;;;;5009206;28;20042;-78
2024/01/31 06:33:42;;;;;;;1.50;0.60;;;16.20;68.00;;;;;;5022396;28;20053;-78
2024/01/31 06:36:08;;;;;;;1.15;1.05;;;16.20;68.90;;;;;;5021972;28;20068;-80
2024/01/31 06:38:34;;;;;;;0.63;0.63;;;16.20;68.00;;;;;;5022581;28;20068;-80
2024/01/31 06:40:59;;;;;;;0.70;0.70;;;16.20;68.10;;;;;;5023742;28;20038;-80
2024/01/31 06:43:25;;;;;;;0.77;0.77;;;16.20;68.00;;;;;;5025305;28;20128;-80
2024/01/31 06:45:52;;;;;;;0.82;0.80;;;16.20;68.10;;;;;;5019518;28;20073;-80
2024/01/31 06:48:17;;;;;;;0.50;0.50;;;16.20;68.20;;;;;;5022318;28;20033;-80
2024/01/31 06:50:43;;;;;;;0.60;0.60;;;16.20;68.10;;;;;;5021546;28;20049;-80
2024/01/31 06:53:08;;;;;;;0.50;0.50;;;16.20;68.80;;;;;;5023497;28;20534;-80
2024/01/31 06:55:34;;;;;;;0.70;0.70;;;16.20;67.90;;;;;;5008270;28;20057;-79
2024/01/31 06:57:59;;;;;;;0.70;0.60;;;16.20;68.10;;;;;;5007414;28;20038;-80
2024/01/31 07:00:25;;;;;;;0.77;0.68;;;16.20;68.00;;;;;;5014764;28;20046;-81
2024/01/31 07:02:52;;;;;;;0.60;0.60;;;16.20;68.10;;;;;;5000376;28;20515;-80
2024/01/31 07:05:19;;;;;;;0.60;0.60;;;16.20;68.00;;;;;;5022070;28;20123;-80
2024/01/31 07:07:46;;;;;;;0.70;0.70;;;16.20;68.10;;;;;;5005847;28;20111;-81
2024/01/31 07:10:11;;;;;;;0.65;0.65;;;16.20;68.10;;;;;;5008428;28;20411;-79
2024/01/31 07:12:37;;;;;;;0.88;0.88;;;16.20;68.10;;;;;;4987866;28;20504;-79
2024/01/31 07:15:03;;;;;;;1.77;0.68;;;16.20;67.90;;;;;;4985152;28;20058;-79
2024/01/31 07:17:29;;;;;;;1.15;0.93;;;16.30;68.20;;;;;;4983187;28;20419;-78
2024/01/31 07:19:54;;;;;;;0.80;0.80;;;16.30;68.50;;;;;;5022151;28;20104;-78
2024/01/31 07:22:20;;;;;;;1.25;0.63;;;16.30;68.00;;;;;;5025305;28;20048;-79
2024/01/31 07:24:45;;;;;;;1.48;0.80;;;16.30;68.10;;;;;;5004197;28;20573;-79
2024/01/31 07:27:11;;;;;;;0.70;0.70;;;16.40;67.40;;;;;;5023386;28;20564;-80
2024/01/31 07:29:36;;;;;;;0.82;0.82;;;16.40;67.40;;;;;;5021652;28;20125;-79
2024/01/31 07:32:02;;;;;;;0.80;0.80;;;16.40;68.40;;;;;;5021826;28;20053;-79
2024/01/31 07:34:27;;;;;;;1.85;1.05;;;16.30;68.20;;;;;;5009939;28;20041;-77
2024/01/31 07:36:53;;;;;;;1.00;0.80;;;16.30;68.20;;;;;;5024968;28;20050;-78
2024/01/31 07:39:19;;;;;;;0.82;0.82;;;16.30;68.20;;;;;;4640296;28;10000402;-77
2024/01/31 07:41:44;;;;;;;1.10;1.00;;;16.30;68.60;;;;;;5003086;28;20041;-77
2024/01/31 07:44:10;;;;;;;1.23;0.70;;;16.30;68.20;;;;;;4997612;28;20038;-78
2024/01/31 07:46:35;;;;;;;0.65;0.65;;;16.30;68.30;;;;;;5021795;28;20679;-78
2024/01/31 07:49:01;;;;;;;1.30;0.98;;;16.30;68.40;;;;;;5025595;28;20037;-79
2024/01/31 07:51:27;;;;;;;1.30;0.98;;;16.40;68.30;;;;;;5016843;28;20060;-78
2024/01/31 07:53:52;;;;;;;1.00;0.90;;;16.40;68.40;;;;;;5020285;28;20025;-77
2024/01/31 07:56:18;;;;;;;0.90;0.85;;;16.30;68.20;;;;;;5007586;28;20427;-77
2024/01/31 07:58:43;;;;;;;1.67;0.90;;;16.30;69.40;;;;;;5021804;28;20033;-77
2024/01/31 08:01:09;;;;;;;0.98;0.70;;;16.40;68.80;;;;;;5035070;28;20041;-77
2024/01/31 08:03:38;;;;;;;0.75;0.75;;;16.40;68.80;;;;;;5018654;28;20084;-78
2024/01/31 08:06:05;;;;;;;1.00;0.93;;;16.40;69.50;;;;;;4991339;28;20029;-78
2024/01/31 08:08:31;;;;;;;0.85;0.85;;;16.40;69.50;;;;;;4994298;28;20423;-78
2024/01/31 08:10:58;;;;;;;1.05;0.82;;;16.40;69.20;;;;;;5053452;28;20030;-78
2024/01/31 08:13:25;;;;;;;2.13;0.90;;;16.40;69.10;;;;;;5020797;28;20030;-78
2024/01/31 08:15:50;;;;;;;1.70;0.70;;;16.30;69.20;;;;;;4978349;28;20034;-77
2024/01/31 08:18:16;;;;;;;1.63;1.05;;;16.30;69.00;;;;;;5017737;28;20033;-78
2024/01/31 08:20:41;;;;;;;1.10;0.88;;;16.30;69.00;;;;;;5007063;28;20108;-78
2024/01/31 08:23:07;;;;;;;1.17;1.08;;;16.30;69.20;;;;;;5021404;28;20076;-77
2024/01/31 08:25:32;;;;;;;1.10;1.00;;;16.30;69.00;;;;;;5005556;28;20095;-78
2024/01/31 08:27:58;;;;;;;0.80;0.70;;;16.30;68.80;;;;;;4988285;28;20068;-78
2024/01/31 08:30:24;;;;;;;1.58;1.10;;;16.30;68.60;;;;;;5015848;28;20120;-77
2024/01/31 08:32:49;;;;;;;1.27;1.05;;;16.30;68.70;;;;;;5020189;28;20041;-78
2024/01/31 08:35:15;;;;;;;1.50;1.40;;;16.30;68.60;;;;;;4997308;28;20025;-78
2024/01/31 08:37:41;;;;;;;1.70;1.58;;;16.30;69.40;;;;;;4986899;28;20753;-78
2024/01/31 08:40:09;;;;;;;1.70;1.60;;;16.20;68.80;;;;;;5022413;28;20103;-79
2024/01/31 08:42:36;;;;;;;1.60;1.50;;;16.30;68.80;;;;;;4985880;28;20076;-79
2024/01/31 08:45:02;;;;;;;1.77;1.40;;;16.30;68.90;;;;;;5024278;28;20049;-78
2024/01/31 08:47:28;;;;;;;2.25;1.38;;;16.30;68.80;;;;;;5011405;28;20065;-80
2024/01/31 08:49:53;;;;;;;1.50;1.40;;;16.30;68.70;;;;;;5028903;28;20735;-81
2024/01/31 08:52:19;;;;;;;1.38;1.25;;;16.30;69.50;;;;;;5028029;28;20068;-79
2024/01/31 08:54:44;;;;;;;1.48;1.30;;;16.40;69.30;;;;;;5005686;28;20477;-80
2024/01/31 08:57:11;;;;;;;1.75;1.40;;;16.40;69.10;;;;;;4992706;28;20482;-80
2024/01/31 08:59:36;;;;;;;1.50;1.40;;;16.40;69.30;;;;;;5023831;28;20048;-80
2024/01/31 09:02:03;;;;;;;1.42;1.33;;;16.40;69.60;;;;;;5004035;28;20132;-79
2024/01/31 09:04:29;;;;;;;2.45;1.60;;;16.30;69.60;;;;;;5022514;28;20045;-79
2024/01/31 09:06:54;;;;;;;1.30;1.20;;;16.40;69.80;;;;;;5050569;28;20392;-79
2024/01/31 09:09:20;;;;;;;1.55;1.45;;;16.40;69.80;;;;;;5016213;28;20037;-79
2024/01/31 09:11:46;;;;;;;1.15;1.15;;;16.30;69.70;;;;;;4999224;28;20040;-79
2024/01/31 09:14:12;;;;;;;1.98;1.30;;;16.30;69.60;;;;;;5008961;28;20060;-77
2024/01/31 09:16:37;;;;;;;1.40;1.30;;;16.40;69.70;;;;;;5024790;28;20060;-79
2024/01/31 09:19:03;;;;;;;1.60;1.50;;;16.30;69.50;;;;;;5050395;28;20045;-79
2024/01/31 09:21:29;;;;;;;1.50;1.40;;;16.40;69.60;;;;;;5001569;28;20043;-79
2024/01/31 09:23:55;;;;;;;3.30;1.77;;;16.40;69.40;;;;;;5009645;28;20045;-80
2024/01/31 09:26:20;;;;;;;1.77;1.30;;;16.40;69.50;;;;;;5024924;28;20045;-79
2024/01/31 09:28:46;;;;;;;1.92;1.75;;;16.40;69.50;;;;;;5008364;28;20099;-79
2024/01/31 09:31:22;;;;;;;1.73;1.30;;;16.40;69.50;;;;;;5043394;28;20416;-80
2024/01/31 09:33:48;;;;;;;2.22;1.25;;;16.40;69.60;;;;;;5012345;28;20061;-79
2024/01/31 09:36:14;;;;;;;1.60;1.50;;;16.40;69.50;;;;;;5008888;28;20042;-79
2024/01/31 09:38:39;;;;;;;2.42;1.30;;;16.40;69.40;;;;;;4988825;28;20415;-79
2024/01/31 09:41:05;;;;;;;1.88;1.25;;;16.50;69.30;;;;;;5012894;28;20042;-79
2024/01/31 09:43:31;;;;;;;1.95;1.48;;;16.40;69.40;;;;;;5024922;28;20033;-79
2024/01/31 09:45:56;;;;;;;1.58;1.33;;;16.50;69.70;;;;;;5021932;28;20056;-80
2024/01/31 09:48:23;;;;;;;1.27;1.15;;;16.50;69.40;;;;;;5007502;28;20503;-80
2024/01/31 09:50:48;;;;;;;1.92;1.42;;;16.50;69.40;;;;;;5004267;28;20076;-79
2024/01/31 09:53:14;;;;;;;1.55;1.13;;;16.50;69.40;;;;;;4999351;28;20069;-79
2024/01/31 09:55:40;;;;;;;1.23;1.13;;;16.50;70.10;;;;;;5004633;28;20104;-79
2024/01/31 09:58:06;;;;;;;1.42;1.33;;;16.50;69.30;;;;;;4988685;28;20084;-79
2024/01/31 10:00:31;;;;;;;1.30;1.20;;;16.50;69.30;;;;;;5001499;28;20069;-79
2024/01/31 10:02:57;;;;;;;1.40;1.30;;;16.50;69.30;;;;;;5023716;28;20042;-79
2024/01/31 10:05:23;;;;;;;1.45;1.35;;;16.50;69.30;;;;;;5023390;28;20065;-79
2024/01/31 10:07:49;;;;;;;1.17;1.08;;;16.60;70.10;;;;;;5023606;28;20069;-79
2024/01/31 10:10:15;;;;;;;1.98;1.23;;;16.60;69.40;;;;;;5002679;28;20038;-79
2024/01/31 10:12:40;;;;;;;1.00;1.00;;;16.60;69.50;;;;;;4987284;28;20533;-79
2024/01/31 10:15:09;;;;;;;1.35;1.25;;;16.60;69.20;;;;;;4997700;28;20046;-79
2024/01/31 10:17:35;;;;;;;1.15;1.10;;;16.60;70.20;;;;;;5022113;28;20395;-80
2024/01/31 10:20:06;;;;;;;1.25;1.15;;;16.60;69.60;;;;;;5023906;28;20045;-79
2024/01/31 10:22:33;;;;;;;1.27;1.17;;;16.70;69.80;;;;;;5009002;28;20116;-79
2024/01/31 10:24:58;;;;;;;1.02;1.02;;;16.70;69.40;;;;;;5024947;28;20132;-80
2024/01/31 10:27:24;;;;;;;0.90;0.90;;;16.70;69.40;;;;;;4999083;28;20472;-79
2024/01/31 10:29:52;;;;;;;0.80;0.80;;;16.70;69.40;;;;;;5020314;28;20167;-79
2024/01/31 10:32:18;;;;;;;1.15;1.00;;;16.70;69.50;;;;;;5022409;28;20037;-80
2024/01/31 10:34:44;;;;;;;1.17;1.08;;;16.70;69.40;;;;;;4997174;28;20088;-79
2024/01/31 10:37:10;;;;;;;2.15;1.23;;;16.80;69.20;;;;;;4987738;28;20518;-82
2024/01/31 10:39:36;;;;;;;1.27;1.17;;;16.80;68.90;;;;;;5006550;28;20104;-79
2024/01/31 10:42:02;;;;;;;0.80;0.80;;;16.80;69.00;;;;;;5005607;28;20519;-80
2024/01/31 10:44:28;;;;;;;1.35;1.25;;;16.80;68.80;;;;;;5047452;28;20099;-80
2024/01/31 10:46:53;;;;;;;1.05;1.05;;;16.80;68.80;;;;;;5021793;28;20086;-80
2024/01/31 10:49:19;;;;;;;1.50;1.10;;;16.80;68.90;;;;;;5025753;28;20040;-80
2024/01/31 10:51:49;;;;;;;1.45;1.10;;;16.90;69.00;;;;;;4989577;28;20112;-80
2024/01/31 10:54:15;;;;;;;1.00;1.00;;;16.90;69.00;;;;;;4993829;28;20037;-80
2024/01/31 10:56:41;;;;;;;1.33;1.20;;;16.90;68.90;;;;;;5003402;28;20065;-81
2024/01/31 10:59:07;;;;;;;1.38;1.27;;;16.90;68.80;;;;;;5005016;28;20428;-80
2024/01/31 11:01:33;;;;;;;1.15;1.05;;;16.90;68.70;;;;;;4987093;28;20042;-81
2024/01/31 11:04:00;;;;;;;2.25;1.17;;;17.00;68.60;;;;;;5026204;28;20103;-79
2024/01/31 11:06:29;;;;;;;2.63;1.10;;;17.00;68.90;;;;;;5020539;28;20084;-79
2024/01/31 11:08:55;;;;;;;1.30;1.20;;;17.10;68.90;;;;;;5021887;28;20691;-79
2024/01/31 11:11:20;;;;;;;1.30;1.20;;;17.00;69.00;;;;;;5022383;28;20042;-79
2024/01/31 11:13:46;;;;;;;2.10;1.77;;;17.00;69.00;;;;;;5022221;28;20045;-79
2024/01/31 11:16:22;;;;;;;1.15;1.15;;;17.00;69.40;;;;;;5038554;28;20055;-79
2024/01/31 11:18:51;;;;;;;1.08;1.05;;;17.00;68.60;;;;;;4989904;28;20037;-79
2024/01/31 11:21:17;;;;;;;0.80;0.80;;;17.10;68.60;;;;;;5003162;28;20551;-79
2024/01/31 11:23:42;;;;;;;1.50;1.40;;;17.10;68.40;;;;;;5021907;28;20052;-79
2024/01/31 11:26:08;;;;;;;1.67;1.20;;;17.10;69.10;;;;;;5005788;28;20463;-79
2024/01/31 11:28:41;;;;;;;1.17;1.10;;;17.10;68.10;;;;;;5023202;28;20041;-79
2024/01/31 11:31:06;;;;;;;1.25;1.15;;;17.10;68.10;;;;;;5023462;28;20509;-79
2024/01/31 11:33:32;;;;;;;1.30;1.30;;;17.10;68.00;;;;;;5021835;28;20432;-79
2024/01/31 11:35:58;;;;;;;1.20;1.10;;;17.20;68.10;;;;;;4996259;28;20527;-79
2024/01/31 11:38:23;;;;;;;0.80;0.80;;;17.20;68.00;;;;;;4986638;28;20042;-79
2024/01/31 11:40:49;;;;;;;2.42;1.10;;;17.20;67.90;;;;;;5012701;28;20038;-79
2024/01/31 11:43:17;;;;;;;1.15;1.10;;;17.20;67.80;;;;;;5022835;28;20083;-80
2024/01/31 11:45:42;;;;;;;1.17;1.17;;;17.20;67.80;;;;;;5006079;28;20045;-79
2024/01/31 11:48:08;;;;;;;1.45;1.10;;;17.20;67.70;;;;;;5006454;28;20504;-79
2024/01/31 11:50:34;;;;;;;1.50;1.40;;;17.20;67.50;;;;;;5020469;28;20511;-80
2024/01/31 11:52:59;;;;;;;1.15;1.05;;;17.30;67.60;;;;;;5023587;28;20407;-79
2024/01/31 11:55:26;;;;;;;1.70;1.10;;;17.30;67.60;;;;;;5025910;28;20068;-79
2024/01/31 11:57:52;;;;;;;1.30;1.20;;;17.30;67.70;;;;;;5004904;28;20567;-79
2024/01/31 12:00:18;;;;;;;1.20;1.10;;;17.30;67.60;;;;;;4981939;28;20125;-79
2024/01/31 12:02:47;;;;;;;1.23;1.13;;;17.20;67.60;;;;;;5003949;28;20046;-79
2024/01/31 12:05:12;;;;;;;1.20;1.20;;;17.30;67.60;;;;;;5017865;28;20141;-79
2024/01/31 12:07:38;;;;;;;1.23;1.23;;;17.30;67.60;;;;;;5021002;28;20128;-79
2024/01/31 12:10:05;;;;;;;1.13;1.02;;;17.20;67.50;;;;;;5024366;28;20057;-79
2024/01/31 12:12:33;;;;;;;1.27;1.20;;;17.30;67.50;;;;;;4990361;28;20132;-79
2024/01/31 12:14:58;;;;;;;1.15;1.10;;;17.30;67.40;;;;;;5006170;28;20125;-79
2024/01/31 12:17:24;;;;;;;1.05;1.00;;;17.30;67.50;;;;;;4991386;28;20037;-79
2024/01/31 12:19:50;;;;;;;1.02;1.00;;;17.30;67.40;;;;;;5021462;28;20182;-79
2024/01/31 12:22:17;;;;;;;1.30;1.10;;;17.30;67.40;;;;;;5023805;28;20045;-79
2024/01/31 12:24:43;;;;;;;1.30;1.00;;;17.30;67.20;;;;;;5020609;28;20058;-79
2024/01/31 12:27:09;;;;;;;0.90;0.90;;;17.30;67.40;;;;;;5056616;28;20045;-79
2024/01/31 12:29:36;;;;;;;1.10;1.00;;;17.30;67.50;;;;;;5003803;28;20044;-80
2024/01/31 12:32:01;;;;;;;1.00;0.90;;;17.30;67.10;;;;;;5019951;28;20103;-79
2024/01/31 12:34:27;;;;;;;1.30;0.90;;;17.30;67.20;;;;;;5027698;28;20034;-79
2024/01/31 12:36:52;;;;;;;0.93;0.80;;;17.30;67.40;;;;;;5002925;28;20041;-79
2024/01/31 12:39:20;;;;;;;1.08;0.95;;;17.30;67.40;;;;;;5023945;28;20041;-79